首页
METAR-TAF:

METAR-TAF

机场 :

Mountain Home, 爱达荷州, 美国

纬度: 43-03N, 经度: 115-52W, 海拔: 913米

当前天气观测

该预报发布于40分钟前的00:58 UTC
风速13节,风向
温度 25°C
湿度 26%
气压 1012 hPa
能見度: 16.1公里
天空无云

METAR: KMUO 010058Z AUTO 35013KT 10SM CLR 25/04 A2988 RMK AO2 SLP098 T02540039 $

时间: 19:38 (01:38 UTC)

预报

该预报发布于7小时和38分钟前的18:00 UTC
预报有效从31日的 18点(UTC)到 01日的 24点(UTC)
风速10节,风向西北
能见度10公里或以上
少量云层高于8000英尺
散云层高于25000英尺
成为
从 01日的 03点(UTC)到 01日的 04点(UTC)
风速9节,风向西北
能见度10公里或以上
少量云层高于8000英尺
散云层高于17000英尺
成为
从 01日的 11点(UTC)到 01日的 12点(UTC)
风速12节,风向西北,有时为20节阵风
能见度10公里或以上
少量云层高于10000英尺
散云层高于14000英尺
成为
从 01日的 19点(UTC)到 01日的 20点(UTC)
风速6节,风向多变
能见度10公里或以上
散云层高于10000英尺

TAF: KMUO 311800Z 3118/0124 32010KT 9999 FEW080 SCT250 QNH2986INS BECMG 0103/0104 32009KT 9999 FEW080 SCT170 QNH2986INS BECMG 0111/0112 32012G20KT 9999 FEW100 SCT140 QNH2988INS BECMG 0119/0120 VRB06KT 9999 SCT100 QNH2993INS TX25/3123Z TN10/0112Z

超过4000个机场的气象观测和天气预报(METAR&TAF报告)。

可查询的气象台以黄色和红色小点在地图上表示。

将鼠标移到小点上方,可查看气象台名称。

然后点击查看天气观测和预报。

如需切换地图:点击带黑十字的绿色按钮放大地图;点击带横线的绿色按钮缩小地图;或者点击绿色箭头查看邻近地区的地图。


METAR-TAF: